sensor_id;sensor_type;location;lat;lon;timestamp;P1;durP1;ratioP1;P2;durP2;ratioP2
73693;SDS011;61997;53.974;11.670;2023-06-10T00:00:19;5.25;;;3.10;;
73693;SDS011;61997;53.974;11.670;2023-06-10T00:02:47;6.97;;;3.53;;
73693;SDS011;61997;53.974;11.670;2023-06-10T00:05:17;5.65;;;2.90;;
73693;SDS011;61997;53.974;11.670;2023-06-10T00:07:48;4.82;;;2.90;;
73693;SDS011;61997;53.974;11.670;2023-06-10T00:10:16;4.55;;;2.88;;
73693;SDS011;61997;53.974;11.670;2023-06-10T00:12:43;6.05;;;3.22;;
73693;SDS011;61997;53.974;11.670;2023-06-10T00:15:11;5.47;;;2.92;;
73693;SDS011;61997;53.974;11.670;2023-06-10T00:17:41;4.90;;;3.28;;
73693;SDS011;61997;53.974;11.670;2023-06-10T00:20:09;4.78;;;2.67;;
73693;SDS011;61997;53.974;11.670;2023-06-10T00:22:40;5.55;;;3.08;;
73693;SDS011;61997;53.974;11.670;2023-06-10T00:25:10;5.85;;;2.90;;
73693;SDS011;61997;53.974;11.670;2023-06-10T00:27:39;5.75;;;3.47;;
73693;SDS011;61997;53.974;11.670;2023-06-10T00:30:12;4.32;;;2.55;;
73693;SDS011;61997;53.974;11.670;2023-06-10T00:32:44;5.38;;;2.95;;
73693;SDS011;61997;53.974;11.670;2023-06-10T00:35:11;5.78;;;3.13;;
73693;SDS011;61997;53.974;11.670;2023-06-10T00:37:37;5.00;;;3.10;;
73693;SDS011;61997;53.974;11.670;2023-06-10T00:40:03;5.70;;;2.78;;
73693;SDS011;61997;53.974;11.670;2023-06-10T00:42:30;5.05;;;3.08;;
73693;SDS011;61997;53.974;11.670;2023-06-10T00:45:02;5.05;;;2.85;;
73693;SDS011;61997;53.974;11.670;2023-06-10T00:47:32;4.47;;;2.70;;
73693;SDS011;61997;53.974;11.670;2023-06-10T00:50:00;4.32;;;2.70;;
73693;SDS011;61997;53.974;11.670;2023-06-10T00:52:31;4.95;;;2.72;;
73693;SDS011;61997;53.974;11.670;2023-06-10T00:55:01;4.90;;;2.67;;
73693;SDS011;61997;53.974;11.670;2023-06-10T00:57:36;6.25;;;3.13;;
73693;SDS011;61997;53.974;11.670;2023-06-10T01:00:06;5.53;;;2.78;;
73693;SDS011;61997;53.974;11.670;2023-06-10T01:02:33;5.63;;;2.75;;
73693;SDS011;61997;53.974;11.670;2023-06-10T01:05:00;4.32;;;2.70;;
73693;SDS011;61997;53.974;11.670;2023-06-10T01:07:38;4.78;;;2.72;;
73693;SDS011;61997;53.974;11.670;2023-06-10T01:10:28;5.18;;;2.78;;
73693;SDS011;61997;53.974;11.670;2023-06-10T01:13:09;5.72;;;2.65;;
73693;SDS011;61997;53.974;11.670;2023-06-10T01:15:37;5.97;;;2.88;;
73693;SDS011;61997;53.974;11.670;2023-06-10T01:18:08;4.10;;;2.45;;
73693;SDS011;61997;53.974;11.670;2023-06-10T01:20:44;5.18;;;2.85;;
73693;SDS011;61997;53.974;11.670;2023-06-10T01:23:13;5.35;;;2.70;;
73693;SDS011;61997;53.974;11.670;2023-06-10T01:25:55;3.92;;;2.00;;
73693;SDS011;61997;53.974;11.670;2023-06-10T01:31:20;4.38;;;2.70;;
73693;SDS011;61997;53.974;11.670;2023-06-10T01:34:07;4.97;;;2.50;;
73693;SDS011;61997;53.974;11.670;2023-06-10T01:36:50;5.78;;;2.50;;
73693;SDS011;61997;53.974;11.670;2023-06-10T01:39:23;3.45;;;2.60;;
73693;SDS011;61997;53.974;11.670;2023-06-10T01:42:03;4.90;;;2.35;;
73693;SDS011;61997;53.974;11.670;2023-06-10T01:44:39;4.00;;;2.60;;
73693;SDS011;61997;53.974;11.670;2023-06-10T01:47:15;6.07;;;3.10;;
73693;SDS011;61997;53.974;11.670;2023-06-10T01:49:45;5.15;;;2.55;;
73693;SDS011;61997;53.974;11.670;2023-06-10T01:52:13;5.70;;;2.80;;
73693;SDS011;61997;53.974;11.670;2023-06-10T01:54:43;5.25;;;2.55;;
73693;SDS011;61997;53.974;11.670;2023-06-10T01:57:13;3.85;;;2.30;;
73693;SDS011;61997;53.974;11.670;2023-06-10T01:59:40;4.43;;;2.35;;
73693;SDS011;61997;53.974;11.670;2023-06-10T02:02:11;4.40;;;2.45;;
73693;SDS011;61997;53.974;11.670;2023-06-10T02:04:39;4.72;;;2.53;;
73693;SDS011;61997;53.974;11.670;2023-06-10T02:07:11;4.63;;;2.55;;
73693;SDS011;61997;53.974;11.670;2023-06-10T02:09:39;4.60;;;2.40;;
73693;SDS011;61997;53.974;11.670;2023-06-10T02:12:10;4.95;;;2.60;;
73693;SDS011;61997;53.974;11.670;2023-06-10T02:14:41;4.65;;;2.50;;
73693;SDS011;61997;53.974;11.670;2023-06-10T02:19:39;4.72;;;2.60;;
73693;SDS011;61997;53.974;11.670;2023-06-10T02:22:18;4.32;;;2.45;;
73693;SDS011;61997;53.974;11.670;2023-06-10T02:24:51;4.45;;;2.72;;
73693;SDS011;61997;53.974;11.670;2023-06-10T02:27:25;3.92;;;2.15;;
73693;SDS011;61997;53.974;11.670;2023-06-10T02:29:58;5.00;;;2.00;;
73693;SDS011;61997;53.974;11.670;2023-06-10T02:32:36;3.72;;;2.30;;
73693;SDS011;61997;53.974;11.670;2023-06-10T02:35:07;4.28;;;2.22;;
73693;SDS011;61997;53.974;11.670;2023-06-10T02:37:44;3.63;;;2.13;;
73693;SDS011;61997;53.974;11.670;2023-06-10T02:40:18;4.20;;;1.95;;
73693;SDS011;61997;53.974;11.670;2023-06-10T02:42:46;4.10;;;2.10;;
73693;SDS011;61997;53.974;11.670;2023-06-10T02:45:19;3.88;;;1.92;;
73693;SDS011;61997;53.974;11.670;2023-06-10T02:47:54;3.75;;;2.10;;
73693;SDS011;61997;53.974;11.670;2023-06-10T02:50:25;4.13;;;1.80;;
73693;SDS011;61997;53.974;11.670;2023-06-10T02:52:56;3.67;;;1.95;;
73693;SDS011;61997;53.974;11.670;2023-06-10T02:55:29;3.17;;;1.80;;
73693;SDS011;61997;53.974;11.670;2023-06-10T02:58:09;4.05;;;2.15;;
73693;SDS011;61997;53.974;11.670;2023-06-10T03:00:42;3.35;;;2.10;;
73693;SDS011;61997;53.974;11.670;2023-06-10T03:03:18;3.00;;;2.05;;
73693;SDS011;61997;53.974;11.670;2023-06-10T03:05:53;3.00;;;1.63;;
73693;SDS011;61997;53.974;11.670;2023-06-10T03:08:31;3.05;;;1.90;;
73693;SDS011;61997;53.974;11.670;2023-06-10T03:11:07;4.32;;;1.73;;
73693;SDS011;61997;53.974;11.670;2023-06-10T03:13:47;4.78;;;2.03;;
73693;SDS011;61997;53.974;11.670;2023-06-10T03:16:22;3.95;;;1.80;;
73693;SDS011;61997;53.974;11.670;2023-06-10T03:19:03;3.97;;;2.15;;
73693;SDS011;61997;53.974;11.670;2023-06-10T03:21:37;3.75;;;1.90;;
73693;SDS011;61997;53.974;11.670;2023-06-10T03:24:11;4.05;;;1.90;;
73693;SDS011;61997;53.974;11.670;2023-06-10T03:26:50;3.05;;;1.65;;
73693;SDS011;61997;53.974;11.670;2023-06-10T03:29:38;3.13;;;1.95;;
73693;SDS011;61997;53.974;11.670;2023-06-10T03:32:15;4.38;;;1.90;;
73693;SDS011;61997;53.974;11.670;2023-06-10T03:34:51;3.83;;;1.52;;
73693;SDS011;61997;53.974;11.670;2023-06-10T03:37:25;3.10;;;1.77;;
73693;SDS011;61997;53.974;11.670;2023-06-10T03:39:58;3.60;;;1.80;;
73693;SDS011;61997;53.974;11.670;2023-06-10T03:42:35;3.17;;;1.55;;
73693;SDS011;61997;53.974;11.670;2023-06-10T03:45:09;4.10;;;1.67;;
73693;SDS011;61997;53.974;11.670;2023-06-10T03:47:37;3.03;;;1.80;;
73693;SDS011;61997;53.974;11.670;2023-06-10T03:50:07;3.33;;;1.80;;
73693;SDS011;61997;53.974;11.670;2023-06-10T03:52:33;4.72;;;1.80;;
73693;SDS011;61997;53.974;11.670;2023-06-10T03:55:03;2.92;;;1.73;;
73693;SDS011;61997;53.974;11.670;2023-06-10T03:57:38;3.95;;;1.88;;
73693;SDS011;61997;53.974;11.670;2023-06-10T04:00:13;3.90;;;1.80;;
73693;SDS011;61997;53.974;11.670;2023-06-10T04:02:41;3.05;;;1.48;;
73693;SDS011;61997;53.974;11.670;2023-06-10T04:05:11;3.83;;;1.67;;
73693;SDS011;61997;53.974;11.670;2023-06-10T04:07:41;3.25;;;1.73;;
73693;SDS011;61997;53.974;11.670;2023-06-10T04:10:10;2.80;;;1.52;;
73693;SDS011;61997;53.974;11.670;2023-06-10T04:12:40;3.58;;;1.63;;
73693;SDS011;61997;53.974;11.670;2023-06-10T04:15:07;2.08;;;1.27;;
73693;SDS011;61997;53.974;11.670;2023-06-10T04:17:33;2.15;;;1.38;;
73693;SDS011;61997;53.974;11.670;2023-06-10T04:19:59;3.67;;;1.67;;
73693;SDS011;61997;53.974;11.670;2023-06-10T04:22:31;5.10;;;2.00;;
73693;SDS011;61997;53.974;11.670;2023-06-10T04:24:57;2.83;;;1.60;;
73693;SDS011;61997;53.974;11.670;2023-06-10T04:27:24;3.78;;;1.55;;
73693;SDS011;61997;53.974;11.670;2023-06-10T04:29:51;3.25;;;1.40;;
73693;SDS011;61997;53.974;11.670;2023-06-10T04:32:19;2.65;;;1.63;;
73693;SDS011;61997;53.974;11.670;2023-06-10T04:34:47;3.65;;;1.67;;
73693;SDS011;61997;53.974;11.670;2023-06-10T04:37:15;2.78;;;1.50;;
73693;SDS011;61997;53.974;11.670;2023-06-10T04:39:45;3.25;;;1.20;;
73693;SDS011;61997;53.974;11.670;2023-06-10T04:42:13;3.10;;;1.40;;
73693;SDS011;61997;53.974;11.670;2023-06-10T04:44:39;3.88;;;1.75;;
73693;SDS011;61997;53.974;11.670;2023-06-10T04:47:07;3.15;;;1.60;;
73693;SDS011;61997;53.974;11.670;2023-06-10T04:49:33;2.85;;;1.48;;
73693;SDS011;61997;53.974;11.670;2023-06-10T04:52:00;2.78;;;1.27;;
73693;SDS011;61997;53.974;11.670;2023-06-10T04:54:26;2.92;;;1.70;;
73693;SDS011;61997;53.974;11.670;2023-06-10T04:56:53;3.33;;;1.33;;
73693;SDS011;61997;53.974;11.670;2023-06-10T04:59:20;2.55;;;1.50;;
73693;SDS011;61997;53.974;11.670;2023-06-10T05:01:47;2.67;;;1.58;;
73693;SDS011;61997;53.974;11.670;2023-06-10T05:04:12;2.45;;;1.40;;
73693;SDS011;61997;53.974;11.670;2023-06-10T05:06:43;2.92;;;1.45;;
73693;SDS011;61997;53.974;11.670;2023-06-10T05:11:34;3.78;;;1.63;;
73693;SDS011;61997;53.974;11.670;2023-06-10T05:14:00;2.88;;;1.40;;
73693;SDS011;61997;53.974;11.670;2023-06-10T05:16:28;3.20;;;1.30;;
73693;SDS011;61997;53.974;11.670;2023-06-10T05:18:57;3.05;;;1.30;;
73693;SDS011;61997;53.974;11.670;2023-06-10T05:21:23;4.38;;;1.27;;
73693;SDS011;61997;53.974;11.670;2023-06-10T05:23:50;3.80;;;1.38;;
73693;SDS011;61997;53.974;11.670;2023-06-10T05:26:19;3.88;;;1.35;;
73693;SDS011;61997;53.974;11.670;2023-06-10T05:28:46;2.05;;;1.25;;
73693;SDS011;61997;53.974;11.670;2023-06-10T05:31:13;2.53;;;1.48;;
73693;SDS011;61997;53.974;11.670;2023-06-10T05:33:42;3.40;;;1.23;;
73693;SDS011;61997;53.974;11.670;2023-06-10T05:36:08;2.58;;;1.08;;
73693;SDS011;61997;53.974;11.670;2023-06-10T05:38:38;3.92;;;1.48;;
73693;SDS011;61997;53.974;11.670;2023-06-10T05:41:08;3.22;;;1.30;;
73693;SDS011;61997;53.974;11.670;2023-06-10T05:43:34;2.38;;;1.20;;
73693;SDS011;61997;53.974;11.670;2023-06-10T05:46:12;2.50;;;1.10;;
73693;SDS011;61997;53.974;11.670;2023-06-10T05:48:42;2.40;;;1.10;;
73693;SDS011;61997;53.974;11.670;2023-06-10T05:51:09;3.17;;;0.93;;
73693;SDS011;61997;53.974;11.670;2023-06-10T05:53:38;2.95;;;1.10;;
73693;SDS011;61997;53.974;11.670;2023-06-10T05:56:05;2.75;;;1.10;;
73693;SDS011;61997;53.974;11.670;2023-06-10T05:58:30;2.97;;;1.20;;
73693;SDS011;61997;53.974;11.670;2023-06-10T06:00:56;1.80;;;1.00;;
73693;SDS011;61997;53.974;11.670;2023-06-10T06:03:22;2.42;;;1.20;;
73693;SDS011;61997;53.974;11.670;2023-06-10T06:05:53;1.90;;;0.90;;
73693;SDS011;61997;53.974;11.670;2023-06-10T06:08:21;2.55;;;1.10;;
73693;SDS011;61997;53.974;11.670;2023-06-10T06:10:47;2.78;;;1.20;;
73693;SDS011;61997;53.974;11.670;2023-06-10T06:13:13;3.03;;;1.17;;
73693;SDS011;61997;53.974;11.670;2023-06-10T06:15:41;2.20;;;1.30;;
73693;SDS011;61997;53.974;11.670;2023-06-10T06:18:07;2.88;;;1.10;;
73693;SDS011;61997;53.974;11.670;2023-06-10T06:20:34;2.22;;;1.02;;
73693;SDS011;61997;53.974;11.670;2023-06-10T06:23:01;2.13;;;1.15;;
73693;SDS011;61997;53.974;11.670;2023-06-10T06:25:30;3.42;;;1.58;;
73693;SDS011;61997;53.974;11.670;2023-06-10T06:27:58;1.75;;;1.02;;
73693;SDS011;61997;53.974;11.670;2023-06-10T06:30:28;2.25;;;1.45;;
73693;SDS011;61997;53.974;11.670;2023-06-10T06:32:56;2.17;;;0.90;;
73693;SDS011;61997;53.974;11.670;2023-06-10T06:35:24;2.03;;;0.80;;
73693;SDS011;61997;53.974;11.670;2023-06-10T06:37:49;2.55;;;1.00;;
73693;SDS011;61997;53.974;11.670;2023-06-10T06:40:16;1.83;;;0.85;;
73693;SDS011;61997;53.974;11.670;2023-06-10T06:42:44;2.95;;;1.08;;
73693;SDS011;61997;53.974;11.670;2023-06-10T06:45:14;2.60;;;1.00;;
73693;SDS011;61997;53.974;11.670;2023-06-10T06:47:46;2.47;;;1.20;;
73693;SDS011;61997;53.974;11.670;2023-06-10T06:50:15;2.75;;;1.17;;
73693;SDS011;61997;53.974;11.670;2023-06-10T06:52:44;3.70;;;1.20;;
73693;SDS011;61997;53.974;11.670;2023-06-10T06:55:13;2.45;;;1.05;;
73693;SDS011;61997;53.974;11.670;2023-06-10T06:57:43;1.98;;;1.10;;
73693;SDS011;61997;53.974;11.670;2023-06-10T07:02:37;2.67;;;1.10;;
73693;SDS011;61997;53.974;11.670;2023-06-10T07:05:08;1.73;;;1.00;;
73693;SDS011;61997;53.974;11.670;2023-06-10T07:07:37;3.22;;;1.50;;
73693;SDS011;61997;53.974;11.670;2023-06-10T07:10:03;1.80;;;0.95;;
73693;SDS011;61997;53.974;11.670;2023-06-10T07:12:29;3.45;;;1.20;;
73693;SDS011;61997;53.974;11.670;2023-06-10T07:14:59;1.88;;;1.02;;
73693;SDS011;61997;53.974;11.670;2023-06-10T07:17:26;2.65;;;1.30;;
73693;SDS011;61997;53.974;11.670;2023-06-10T07:19:55;2.13;;;1.00;;
73693;SDS011;61997;53.974;11.670;2023-06-10T07:22:27;2.25;;;1.02;;
73693;SDS011;61997;53.974;11.670;2023-06-10T07:24:59;2.40;;;1.30;;
73693;SDS011;61997;53.974;11.670;2023-06-10T07:27:26;3.25;;;1.17;;
73693;SDS011;61997;53.974;11.670;2023-06-10T07:29:52;1.65;;;0.85;;
73693;SDS011;61997;53.974;11.670;2023-06-10T07:32:19;1.95;;;0.90;;
73693;SDS011;61997;53.974;11.670;2023-06-10T07:34:47;2.08;;;1.00;;
73693;SDS011;61997;53.974;11.670;2023-06-10T07:37:15;2.90;;;1.00;;
73693;SDS011;61997;53.974;11.670;2023-06-10T07:39:40;2.38;;;0.98;;
73693;SDS011;61997;53.974;11.670;2023-06-10T07:42:13;2.30;;;1.25;;
73693;SDS011;61997;53.974;11.670;2023-06-10T07:44:42;2.22;;;0.85;;
73693;SDS011;61997;53.974;11.670;2023-06-10T07:47:12;2.33;;;1.30;;
73693;SDS011;61997;53.974;11.670;2023-06-10T07:49:39;2.63;;;1.40;;
73693;SDS011;61997;53.974;11.670;2023-06-10T07:52:06;2.70;;;1.10;;
73693;SDS011;61997;53.974;11.670;2023-06-10T07:54:35;2.80;;;1.20;;
73693;SDS011;61997;53.974;11.670;2023-06-10T07:57:04;2.10;;;1.17;;
73693;SDS011;61997;53.974;11.670;2023-06-10T07:59:32;1.30;;;0.90;;
73693;SDS011;61997;53.974;11.670;2023-06-10T08:02:05;2.50;;;1.00;;
73693;SDS011;61997;53.974;11.670;2023-06-10T08:04:32;2.65;;;1.10;;
73693;SDS011;61997;53.974;11.670;2023-06-10T08:07:06;4.03;;;1.20;;
73693;SDS011;61997;53.974;11.670;2023-06-10T08:09:33;2.83;;;1.17;;
73693;SDS011;61997;53.974;11.670;2023-06-10T08:12:01;1.77;;;0.95;;
73693;SDS011;61997;53.974;11.670;2023-06-10T08:14:29;2.90;;;1.20;;
73693;SDS011;61997;53.974;11.670;2023-06-10T08:17:02;2.00;;;1.20;;
73693;SDS011;61997;53.974;11.670;2023-06-10T08:19:35;3.75;;;1.40;;
73693;SDS011;61997;53.974;11.670;2023-06-10T08:22:11;2.47;;;1.50;;
73693;SDS011;61997;53.974;11.670;2023-06-10T08:24:48;3.53;;;1.38;;
73693;SDS011;61997;53.974;11.670;2023-06-10T08:27:24;2.97;;;1.00;;
73693;SDS011;61997;53.974;11.670;2023-06-10T08:30:09;2.40;;;1.13;;
73693;SDS011;61997;53.974;11.670;2023-06-10T08:32:38;6.03;;;1.90;;
73693;SDS011;61997;53.974;11.670;2023-06-10T08:35:10;2.50;;;1.10;;
73693;SDS011;61997;53.974;11.670;2023-06-10T08:37:47;3.05;;;1.30;;
73693;SDS011;61997;53.974;11.670;2023-06-10T08:40:12;2.45;;;1.20;;
73693;SDS011;61997;53.974;11.670;2023-06-10T08:43:22;2.25;;;1.10;;
73693;SDS011;61997;53.974;11.670;2023-06-10T08:45:41;3.10;;;1.30;;
73693;SDS011;61997;53.974;11.670;2023-06-10T08:48:13;2.42;;;1.42;;
73693;SDS011;61997;53.974;11.670;2023-06-10T08:50:41;3.55;;;1.30;;
73693;SDS011;61997;53.974;11.670;2023-06-10T08:53:09;2.22;;;1.35;;
73693;SDS011;61997;53.974;11.670;2023-06-10T08:55:52;2.85;;;1.00;;
73693;SDS011;61997;53.974;11.670;2023-06-10T08:58:24;2.38;;;1.27;;
73693;SDS011;61997;53.974;11.670;2023-06-10T09:00:54;4.13;;;1.30;;
73693;SDS011;61997;53.974;11.670;2023-06-10T09:03:27;4.00;;;1.40;;
73693;SDS011;61997;53.974;11.670;2023-06-10T09:06:09;2.05;;;1.20;;
73693;SDS011;61997;53.974;11.670;2023-06-10T09:08:40;2.60;;;1.52;;
73693;SDS011;61997;53.974;11.670;2023-06-10T09:11:07;3.25;;;1.33;;
73693;SDS011;61997;53.974;11.670;2023-06-10T09:13:33;2.88;;;1.40;;
73693;SDS011;61997;53.974;11.670;2023-06-10T09:15:59;2.42;;;1.20;;
73693;SDS011;61997;53.974;11.670;2023-06-10T09:18:27;2.22;;;1.00;;
73693;SDS011;61997;53.974;11.670;2023-06-10T09:20:55;2.40;;;1.40;;
73693;SDS011;61997;53.974;11.670;2023-06-10T09:23:21;2.28;;;1.40;;
73693;SDS011;61997;53.974;11.670;2023-06-10T09:25:53;3.75;;;1.35;;
73693;SDS011;61997;53.974;11.670;2023-06-10T09:28:24;3.17;;;1.45;;
73693;SDS011;61997;53.974;11.670;2023-06-10T09:33:37;3.05;;;1.63;;
73693;SDS011;61997;53.974;11.670;2023-06-10T09:36:08;3.45;;;1.45;;
73693;SDS011;61997;53.974;11.670;2023-06-10T09:38:37;2.85;;;1.20;;
73693;SDS011;61997;53.974;11.670;2023-06-10T09:41:03;3.38;;;2.17;;
73693;SDS011;61997;53.974;11.670;2023-06-10T09:43:38;3.30;;;1.40;;
73693;SDS011;61997;53.974;11.670;2023-06-10T09:46:05;2.47;;;1.40;;
73693;SDS011;61997;53.974;11.670;2023-06-10T09:48:34;2.55;;;1.35;;
73693;SDS011;61997;53.974;11.670;2023-06-10T09:51:01;4.15;;;1.38;;
73693;SDS011;61997;53.974;11.670;2023-06-10T09:53:27;3.17;;;1.20;;
73693;SDS011;61997;53.974;11.670;2023-06-10T09:55:52;3.63;;;1.50;;
73693;SDS011;61997;53.974;11.670;2023-06-10T09:58:33;2.58;;;1.50;;
73693;SDS011;61997;53.974;11.670;2023-06-10T10:01:09;3.88;;;1.58;;
73693;SDS011;61997;53.974;11.670;2023-06-10T10:03:49;3.30;;;1.42;;
73693;SDS011;61997;53.974;11.670;2023-06-10T10:06:18;3.75;;;1.50;;
73693;SDS011;61997;53.974;11.670;2023-06-10T10:09:01;2.47;;;1.30;;
73693;SDS011;61997;53.974;11.670;2023-06-10T10:11:36;3.53;;;1.42;;
73693;SDS011;61997;53.974;11.670;2023-06-10T10:14:08;4.85;;;1.58;;
73693;SDS011;61997;53.974;11.670;2023-06-10T10:16:41;3.40;;;1.52;;
73693;SDS011;61997;53.974;11.670;2023-06-10T10:19:13;3.38;;;1.70;;
73693;SDS011;61997;53.974;11.670;2023-06-10T10:21:50;2.60;;;1.50;;
73693;SDS011;61997;53.974;11.670;2023-06-10T10:24:32;3.20;;;1.40;;
73693;SDS011;61997;53.974;11.670;2023-06-10T10:27:05;2.45;;;1.58;;
73693;SDS011;61997;53.974;11.670;2023-06-10T10:29:38;3.67;;;1.42;;
73693;SDS011;61997;53.974;11.670;2023-06-10T10:32:08;2.80;;;1.40;;
73693;SDS011;61997;53.974;11.670;2023-06-10T10:37:17;2.90;;;1.50;;
73693;SDS011;61997;53.974;11.670;2023-06-10T10:39:45;2.25;;;1.23;;
73693;SDS011;61997;53.974;11.670;2023-06-10T10:42:13;2.60;;;1.45;;
73693;SDS011;61997;53.974;11.670;2023-06-10T10:44:45;2.25;;;1.38;;
73693;SDS011;61997;53.974;11.670;2023-06-10T10:47:11;5.32;;;2.00;;
73693;SDS011;61997;53.974;11.670;2023-06-10T10:49:39;2.90;;;1.70;;
73693;SDS011;61997;53.974;11.670;2023-06-10T10:52:11;4.25;;;1.63;;
73693;SDS011;61997;53.974;11.670;2023-06-10T10:54:43;2.42;;;1.42;;
73693;SDS011;61997;53.974;11.670;2023-06-10T10:57:20;2.65;;;1.55;;
73693;SDS011;61997;53.974;11.670;2023-06-10T10:59:57;3.55;;;2.03;;
73693;SDS011;61997;53.974;11.670;2023-06-10T11:05:06;3.22;;;1.80;;
73693;SDS011;61997;53.974;11.670;2023-06-10T11:07:40;3.97;;;1.80;;
73693;SDS011;61997;53.974;11.670;2023-06-10T11:10:07;2.70;;;1.70;;
73693;SDS011;61997;53.974;11.670;2023-06-10T11:15:17;3.78;;;1.80;;
73693;SDS011;61997;53.974;11.670;2023-06-10T11:20:45;3.38;;;1.60;;
73693;SDS011;61997;53.974;11.670;2023-06-10T11:26:12;2.60;;;1.83;;
73693;SDS011;61997;53.974;11.670;2023-06-10T11:31:24;3.47;;;2.03;;
73693;SDS011;61997;53.974;11.670;2023-06-10T11:33:54;3.35;;;1.80;;
73693;SDS011;61997;53.974;11.670;2023-06-10T11:36:21;3.05;;;2.00;;
73693;SDS011;61997;53.974;11.670;2023-06-10T11:38:47;4.25;;;2.10;;
73693;SDS011;61997;53.974;11.670;2023-06-10T11:41:14;3.50;;;1.88;;
73693;SDS011;61997;53.974;11.670;2023-06-10T11:43:44;3.17;;;1.92;;
73693;SDS011;61997;53.974;11.670;2023-06-10T11:46:14;3.63;;;2.05;;
73693;SDS011;61997;53.974;11.670;2023-06-10T11:48:51;2.42;;;1.83;;
73693;SDS011;61997;53.974;11.670;2023-06-10T11:51:17;3.75;;;2.00;;
73693;SDS011;61997;53.974;11.670;2023-06-10T11:53:46;3.05;;;1.70;;
73693;SDS011;61997;53.974;11.670;2023-06-10T11:56:20;3.88;;;2.33;;
73693;SDS011;61997;53.974;11.670;2023-06-10T11:59:02;3.17;;;2.00;;
73693;SDS011;61997;53.974;11.670;2023-06-10T12:01:35;3.80;;;1.95;;
73693;SDS011;61997;53.974;11.670;2023-06-10T12:06:40;5.20;;;2.00;;
73693;SDS011;61997;53.974;11.670;2023-06-10T12:12:06;3.63;;;2.42;;
73693;SDS011;61997;53.974;11.670;2023-06-10T12:20:03;4.03;;;2.00;;
73693;SDS011;61997;53.974;11.670;2023-06-10T12:25:03;4.72;;;2.35;;
73693;SDS011;61997;53.974;11.670;2023-06-10T12:27:32;3.63;;;2.35;;
73693;SDS011;61997;53.974;11.670;2023-06-10T12:29:59;3.75;;;1.98;;
73693;SDS011;61997;53.974;11.670;2023-06-10T12:32:38;4.72;;;2.00;;
73693;SDS011;61997;53.974;11.670;2023-06-10T12:35:05;3.92;;;2.20;;
73693;SDS011;61997;53.974;11.670;2023-06-10T12:37:32;3.80;;;2.10;;
73693;SDS011;61997;53.974;11.670;2023-06-10T12:40:03;3.83;;;2.28;;
73693;SDS011;61997;53.974;11.670;2023-06-10T12:42:30;4.90;;;2.40;;
73693;SDS011;61997;53.974;11.670;2023-06-10T12:44:59;3.20;;;2.15;;
73693;SDS011;61997;53.974;11.670;2023-06-10T12:47:30;4.45;;;2.22;;
73693;SDS011;61997;53.974;11.670;2023-06-10T12:50:05;3.28;;;2.20;;
73693;SDS011;61997;53.974;11.670;2023-06-10T12:52:32;3.53;;;2.13;;
73693;SDS011;61997;53.974;11.670;2023-06-10T12:54:58;4.55;;;2.58;;
73693;SDS011;61997;53.974;11.670;2023-06-10T12:57:25;3.28;;;2.15;;
73693;SDS011;61997;53.974;11.670;2023-06-10T12:59:51;4.22;;;2.05;;
73693;SDS011;61997;53.974;11.670;2023-06-10T13:02:25;3.85;;;2.10;;
73693;SDS011;61997;53.974;11.670;2023-06-10T13:04:51;3.88;;;2.03;;
73693;SDS011;61997;53.974;11.670;2023-06-10T13:07:17;5.13;;;2.30;;
73693;SDS011;61997;53.974;11.670;2023-06-10T13:09:44;4.15;;;2.35;;
73693;SDS011;61997;53.974;11.670;2023-06-10T13:12:14;3.97;;;2.42;;
73693;SDS011;61997;53.974;11.670;2023-06-10T13:14:44;3.30;;;2.30;;
73693;SDS011;61997;53.974;11.670;2023-06-10T13:17:12;3.75;;;2.47;;
73693;SDS011;61997;53.974;11.670;2023-06-10T13:19:46;3.58;;;2.22;;
73693;SDS011;61997;53.974;11.670;2023-06-10T13:22:16;4.85;;;2.20;;
73693;SDS011;61997;53.974;11.670;2023-06-10T13:24:49;4.38;;;2.40;;
73693;SDS011;61997;53.974;11.670;2023-06-10T13:27:22;2.88;;;1.95;;
73693;SDS011;61997;53.974;11.670;2023-06-10T13:30:00;3.65;;;2.28;;
73693;SDS011;61997;53.974;11.670;2023-06-10T13:32:33;3.20;;;2.33;;
73693;SDS011;61997;53.974;11.670;2023-06-10T13:35:07;4.53;;;2.40;;
73693;SDS011;61997;53.974;11.670;2023-06-10T13:37:49;3.40;;;2.45;;
73693;SDS011;61997;53.974;11.670;2023-06-10T13:40:20;4.40;;;2.53;;
73693;SDS011;61997;53.974;11.670;2023-06-10T13:42:59;3.83;;;2.85;;
73693;SDS011;61997;53.974;11.670;2023-06-10T13:45:40;3.47;;;2.15;;
73693;SDS011;61997;53.974;11.670;2023-06-10T13:48:12;3.55;;;2.70;;
73693;SDS011;61997;53.974;11.670;2023-06-10T13:50:50;3.78;;;2.72;;
73693;SDS011;61997;53.974;11.670;2023-06-10T13:53:27;3.35;;;2.10;;
73693;SDS011;61997;53.974;11.670;2023-06-10T13:56:04;2.90;;;2.03;;
73693;SDS011;61997;53.974;11.670;2023-06-10T13:58:41;3.40;;;2.30;;
73693;SDS011;61997;53.974;11.670;2023-06-10T14:01:16;3.08;;;2.20;;
73693;SDS011;61997;53.974;11.670;2023-06-10T14:03:56;4.03;;;2.53;;
73693;SDS011;61997;53.974;11.670;2023-06-10T14:06:26;3.55;;;2.60;;
73693;SDS011;61997;53.974;11.670;2023-06-10T14:09:04;3.90;;;2.55;;
73693;SDS011;61997;53.974;11.670;2023-06-10T14:11:37;5.28;;;2.47;;
73693;SDS011;61997;53.974;11.670;2023-06-10T14:14:14;3.38;;;2.55;;
73693;SDS011;61997;53.974;11.670;2023-06-10T14:16:46;2.95;;;2.50;;
73693;SDS011;61997;53.974;11.670;2023-06-10T14:19:11;5.13;;;3.05;;
73693;SDS011;61997;53.974;11.670;2023-06-10T14:21:43;4.72;;;2.10;;
73693;SDS011;61997;53.974;11.670;2023-06-10T14:24:15;3.67;;;2.40;;
73693;SDS011;61997;53.974;11.670;2023-06-10T14:26:41;3.25;;;2.58;;
73693;SDS011;61997;53.974;11.670;2023-06-10T14:29:13;2.95;;;2.25;;
73693;SDS011;61997;53.974;11.670;2023-06-10T14:31:43;3.22;;;2.20;;
73693;SDS011;61997;53.974;11.670;2023-06-10T14:34:11;3.80;;;2.35;;
73693;SDS011;61997;53.974;11.670;2023-06-10T14:36:36;3.78;;;2.40;;
73693;SDS011;61997;53.974;11.670;2023-06-10T14:39:02;3.85;;;2.30;;
73693;SDS011;61997;53.974;11.670;2023-06-10T14:41:27;3.42;;;2.35;;
73693;SDS011;61997;53.974;11.670;2023-06-10T14:43:53;3.95;;;2.05;;
73693;SDS011;61997;53.974;11.670;2023-06-10T14:46:19;4.00;;;2.47;;
73693;SDS011;61997;53.974;11.670;2023-06-10T14:48:46;3.60;;;2.10;;
73693;SDS011;61997;53.974;11.670;2023-06-10T14:51:12;3.78;;;2.35;;
73693;SDS011;61997;53.974;11.670;2023-06-10T14:53:37;4.20;;;2.70;;
73693;SDS011;61997;53.974;11.670;2023-06-10T14:56:03;3.65;;;2.50;;
73693;SDS011;61997;53.974;11.670;2023-06-10T14:58:28;5.35;;;2.85;;
73693;SDS011;61997;53.974;11.670;2023-06-10T15:00:59;3.33;;;2.35;;
73693;SDS011;61997;53.974;11.670;2023-06-10T15:03:34;3.95;;;2.80;;
73693;SDS011;61997;53.974;11.670;2023-06-10T15:06:00;4.22;;;2.38;;
73693;SDS011;61997;53.974;11.670;2023-06-10T15:08:26;4.60;;;2.45;;
73693;SDS011;61997;53.974;11.670;2023-06-10T15:10:53;5.35;;;2.70;;
73693;SDS011;61997;53.974;11.670;2023-06-10T15:13:20;4.72;;;2.72;;
73693;SDS011;61997;53.974;11.670;2023-06-10T15:15:52;3.25;;;2.50;;
73693;SDS011;61997;53.974;11.670;2023-06-10T15:18:24;4.50;;;2.65;;
73693;SDS011;61997;53.974;11.670;2023-06-10T15:21:00;4.65;;;2.40;;
73693;SDS011;61997;53.974;11.670;2023-06-10T15:23:31;4.20;;;2.50;;
73693;SDS011;61997;53.974;11.670;2023-06-10T15:26:09;3.88;;;2.50;;
73693;SDS011;61997;53.974;11.670;2023-06-10T15:28:42;2.97;;;2.33;;
73693;SDS011;61997;53.974;11.670;2023-06-10T15:31:13;4.07;;;2.40;;
73693;SDS011;61997;53.974;11.670;2023-06-10T15:33:45;3.88;;;2.40;;
73693;SDS011;61997;53.974;11.670;2023-06-10T15:36:23;6.85;;;2.97;;